createdAt,value
2019-05-04T07:45:26.100Z,5
2019-05-04T07:46:22.276Z,5
2019-05-04T07:47:24.825Z,5
2019-05-04T07:48:19.536Z,5
2019-05-04T07:49:19.386Z,5
2019-05-04T07:50:16.799Z,5
2019-05-04T07:51:16.075Z,5
2019-05-04T07:52:15.387Z,5
2019-05-04T07:53:15.260Z,5
2019-05-04T07:54:11.468Z,10
2019-05-04T07:59:31.731Z,10
2019-05-04T08:00:30.455Z,10
2019-05-04T08:01:29.247Z,15
2019-05-04T08:02:27.861Z,15
2019-05-04T08:03:29.237Z,15
2019-05-04T08:04:25.193Z,15
2019-05-04T08:05:28.771Z,15
2019-05-04T08:06:22.299Z,15
2019-05-04T08:07:20.867Z,15
2019-05-04T08:09:45.549Z,15
2019-05-04T08:10:42.303Z,15
2019-05-04T08:11:48.037Z,15
2019-05-04T08:12:42.781Z,15
2019-05-04T08:13:39.835Z,15
2019-05-04T08:14:44.870Z,10
2019-05-04T08:15:39.049Z,15
2019-05-04T08:16:35.283Z,15
2019-05-04T08:17:34.837Z,15
2019-05-04T08:27:38.806Z,15
2019-05-04T08:30:19.196Z,25
2019-05-04T08:31:19.820Z,20
2019-05-04T08:32:16.634Z,15
2019-05-04T08:33:15.338Z,10
2019-05-04T08:34:14.196Z,10
2019-05-04T08:35:12.590Z,10
2019-05-04T08:36:15.060Z,10
2019-05-04T08:37:09.700Z,10
2019-05-04T08:38:11.369Z,10
2019-05-04T08:39:07.344Z,10
2019-05-04T08:40:05.973Z,10
2019-05-04T08:41:04.593Z,5
2019-05-04T08:42:14.034Z,5
2019-05-04T08:43:03.640Z,10
2019-05-04T08:44:10.739Z,10
2019-05-04T08:44:59.063Z,5
2019-05-04T08:45:58.392Z,10
2019-05-04T08:46:56.257Z,10
2019-05-04T08:47:57.151Z,10
2019-05-04T08:48:54.536Z,10
2019-05-04T08:49:54.095Z,10
2019-05-04T08:50:50.636Z,10
2019-05-04T08:52:01.724Z,15
2019-05-04T08:52:47.721Z,15
2019-05-04T08:53:46.480Z,15
2019-05-04T08:54:45.182Z,15
2019-05-04T08:55:44.513Z,15
2019-05-04T08:56:44.873Z,20
2019-05-04T08:57:42.792Z,20
2019-05-04T08:58:40.011Z,20
2019-05-04T08:59:44.975Z,20
2019-05-04T09:00:37.055Z,20
2019-05-04T09:01:35.614Z,25
2019-05-04T09:04:24.921Z,30
2019-05-04T09:05:25.372Z,30
2019-05-04T09:06:18.532Z,30
2019-05-04T09:07:18.103Z,30
2019-05-04T09:08:14.572Z,30
2019-05-04T09:09:10.536Z,25
2019-05-04T09:10:09.399Z,25
2019-05-04T09:11:13.185Z,20
2019-05-04T09:12:17.898Z,20
2019-05-04T09:13:06.571Z,20
2019-05-04T09:14:02.010Z,15
2019-05-04T09:15:04.955Z,15
2019-05-04T09:16:00.006Z,15
2019-05-04T09:16:58.032Z,15
2019-05-04T09:19:20.731Z,10
2019-05-04T09:20:19.265Z,15
2019-05-04T09:21:19.615Z,15
2019-05-04T09:22:22.265Z,15
2019-05-04T09:23:18.993Z,20
2019-05-04T09:24:14.591Z,20
2019-05-04T09:25:12.464Z,15
2019-05-04T09:26:13.016Z,15
2019-05-04T09:27:09.561Z,15
2019-05-04T09:28:11.069Z,10
2019-05-04T09:29:06.837Z,10
2019-05-04T09:30:12.279Z,10
2019-05-04T09:31:04.672Z,10
2019-05-04T09:32:04.615Z,10
2019-05-04T09:33:05.541Z,10
2019-05-04T09:34:00.070Z,10
2019-05-04T09:35:01.125Z,10
2019-05-04T09:36:04.506Z,5
2019-05-04T09:36:55.780Z,5
2019-05-04T09:37:58.355Z,5
2019-05-04T09:38:55.013Z,10
2019-05-04T09:39:54.523Z,10
2019-05-04T09:40:51.888Z,5
2019-05-04T09:41:49.093Z,5
2019-05-04T09:44:29.214Z,10
2019-05-04T09:45:28.725Z,15
2019-05-04T09:46:26.318Z,15
2019-05-04T09:47:26.181Z,15
2019-05-04T09:48:24.695Z,10
2019-05-04T09:49:25.243Z,10
2019-05-04T09:50:20.987Z,10
2019-05-04T09:51:26.261Z,10
2019-05-04T09:52:18.044Z,10
2019-05-04T09:53:21.250Z,10
2019-05-04T09:54:18.074Z,10
2019-05-04T09:55:15.296Z,15
2019-05-04T09:56:15.737Z,15
2019-05-04T09:57:10.898Z,20
2019-05-04T09:58:09.433Z,25
2019-05-04T09:59:08.366Z,30
2019-05-04T10:00:07.339Z,30
2019-05-04T10:01:05.209Z,35
2019-05-04T10:02:05.652Z,35
2019-05-04T10:03:02.415Z,35
2019-05-04T10:04:01.027Z,50
2019-05-04T10:06:41.191Z,90
2019-05-04T10:07:39.716Z,85
2019-05-04T10:10:20.171Z,75
2019-05-04T10:11:18.904Z,75
2019-05-04T10:38:27.011Z,75
2019-05-04T10:39:25.711Z,75
2019-05-04T10:40:24.441Z,80
2019-05-04T10:43:06.409Z,70
2019-05-04T10:46:25.161Z,80
2019-05-04T10:47:21.779Z,80
2019-05-04T10:48:20.361Z,80
2019-05-04T10:49:18.935Z,80
2019-05-04T10:52:34.658Z,80
2019-05-04T10:55:18.869Z,85
2019-05-04T10:56:17.429Z,80
2019-05-04T10:57:15.972Z,85
2019-05-04T10:59:58.195Z,105
2019-05-04T11:00:56.813Z,100
2019-05-04T11:03:36.942Z,85
2019-05-04T11:04:35.707Z,85
2019-05-04T11:05:35.087Z,80
2019-05-04T11:09:25.346Z,115
2019-05-04T11:10:25.695Z,105
2019-05-04T11:11:25.275Z,100
2019-05-04T11:12:21.251Z,110
2019-05-04T11:13:20.388Z,115
2019-05-04T11:14:18.702Z,110
2019-05-04T11:15:17.326Z,110
2019-05-04T11:16:15.994Z,110
2019-05-04T11:20:37.970Z,125
2019-05-04T11:21:36.552Z,120
2019-05-04T11:24:16.654Z,120
2019-05-04T11:25:15.199Z,120
2019-05-04T11:26:14.286Z,115
2019-05-04T11:32:38.847Z,125
2019-05-04T11:35:49.736Z,120
2019-05-04T11:36:48.332Z,125
2019-05-04T11:37:47.039Z,130
2019-05-04T11:38:47.595Z,130
2019-05-04T11:39:44.187Z,125
2019-05-04T11:40:45.011Z,125
2019-05-04T11:41:41.534Z,125
2019-05-04T11:42:40.276Z,115
2019-05-04T11:45:28.764Z,110
2019-05-04T11:46:27.293Z,105
2019-05-04T11:47:25.857Z,105
2019-05-04T11:48:24.752Z,105
2019-05-04T11:49:25.031Z,100
2019-05-04T11:50:21.795Z,95
2019-05-04T11:51:20.419Z,95
2019-05-04T11:52:18.988Z,95
2019-05-04T11:53:18.841Z,85
2019-05-04T11:54:16.131Z,85
2019-05-04T11:55:14.754Z,85
2019-05-04T11:56:15.083Z,85
2019-05-04T11:59:08.739Z,95
2019-05-04T12:00:07.270Z,100
2019-05-04T12:01:05.808Z,100
2019-05-04T12:02:04.863Z,100
2019-05-04T12:03:04.971Z,95
2019-05-04T12:04:01.704Z,90
2019-05-04T12:05:00.318Z,90
2019-05-04T12:07:40.773Z,80
2019-05-04T12:08:39.338Z,95
2019-05-04T12:09:37.900Z,105
2019-05-04T12:10:36.825Z,105
2019-05-04T12:11:35.378Z,105
2019-05-04T12:12:33.938Z,105
2019-05-04T12:13:43.381Z,95
2019-05-04T12:14:31.213Z,90
2019-05-04T12:15:29.769Z,90
2019-05-04T12:16:28.310Z,80
2019-05-04T12:17:26.876Z,75
2019-05-04T12:18:25.523Z,80
2019-05-04T12:19:24.506Z,85
2019-05-04T12:20:22.842Z,85
2019-05-04T12:21:21.401Z,85
2019-05-04T12:22:19.983Z,105
2019-05-04T12:23:18.653Z,125
2019-05-04T12:24:17.312Z,130
2019-05-04T12:25:15.873Z,135
2019-05-04T12:26:14.979Z,130
2019-05-04T12:27:15.260Z,125
2019-05-04T12:28:11.575Z,120
2019-05-04T12:29:10.349Z,115
2019-05-04T12:30:09.055Z,115
2019-05-04T12:31:07.581Z,120
2019-05-04T12:32:06.184Z,120
2019-05-04T12:33:05.085Z,110
2019-05-04T12:34:04.445Z,100
2019-05-04T12:35:02.046Z,90
2019-05-04T12:36:00.638Z,80
2019-05-04T12:36:59.177Z,80
2019-05-04T12:37:57.753Z,75
2019-05-04T12:38:56.425Z,75
2019-05-04T12:39:55.183Z,90
2019-05-04T12:40:55.892Z,90
2019-05-04T12:41:54.247Z,100
2019-05-04T12:42:51.183Z,110
2019-05-04T12:43:59.004Z,100
2019-05-04T12:44:48.318Z,100
2019-05-04T12:45:46.865Z,85
2019-05-04T12:46:45.524Z,90
2019-05-04T12:47:44.965Z,110
2019-05-04T12:48:45.148Z,120
2019-05-04T12:49:41.535Z,115
2019-05-04T12:50:40.223Z,110
2019-05-04T12:51:38.837Z,110
2019-05-04T12:52:37.406Z,110
2019-05-04T12:53:35.949Z,110
2019-05-04T12:54:36.086Z,120
2019-05-04T12:55:34.329Z,115
2019-05-04T12:56:31.567Z,120
2019-05-04T12:59:11.852Z,140
2019-05-04T13:00:10.426Z,145
2019-05-04T13:01:09.346Z,145
2019-05-04T13:04:01.016Z,140
2019-05-04T13:04:59.592Z,135
2019-05-04T13:05:58.392Z,135
2019-05-04T13:06:57.173Z,135
2019-05-04T13:07:55.739Z,145
2019-05-04T13:08:54.480Z,150
2019-05-04T13:09:54.142Z,150
2019-05-04T13:10:51.697Z,150
2019-05-04T13:11:50.276Z,150
2019-05-04T13:12:48.904Z,145
2019-05-04T13:13:47.436Z,145
2019-05-04T13:14:46.023Z,145
2019-05-04T13:15:45.991Z,145
2019-05-04T13:18:36.265Z,155
2019-05-04T13:19:35.234Z,160
2019-05-04T13:22:31.020Z,155
2019-05-04T13:23:29.632Z,150
2019-05-04T13:24:28.318Z,150
2019-05-04T13:25:27.042Z,155
2019-05-04T13:26:26.194Z,155
2019-05-04T13:27:24.485Z,155
2019-05-04T13:28:22.827Z,145
2019-05-04T13:29:21.504Z,140
2019-05-04T13:30:20.069Z,135
2019-05-04T13:31:18.663Z,130
2019-05-04T13:32:17.266Z,130
2019-05-04T13:33:15.809Z,130
2019-05-04T13:34:14.819Z,140
2019-05-04T13:35:13.078Z,140
2019-05-04T13:36:11.664Z,145
2019-05-04T13:37:10.648Z,145
2019-05-04T13:38:09.327Z,145
2019-05-04T13:39:07.887Z,140
2019-05-04T13:40:06.489Z,140
2019-05-04T13:41:05.250Z,140
2019-05-04T13:42:05.216Z,135
2019-05-04T13:43:04.280Z,135
2019-05-04T13:44:01.207Z,130
2019-05-04T13:44:59.743Z,130
2019-05-04T13:45:58.370Z,130
2019-05-04T13:48:38.961Z,140
2019-05-04T13:49:37.529Z,140
2019-05-04T13:50:36.054Z,140
2019-05-04T13:51:35.089Z,140
2019-05-04T13:52:35.180Z,140
2019-05-04T13:53:31.859Z,140
2019-05-04T13:54:30.593Z,135
2019-05-04T13:55:29.303Z,130
2019-05-04T13:56:28.001Z,125
2019-05-04T13:57:26.875Z,130
2019-05-04T13:58:25.436Z,125
2019-05-04T13:59:25.064Z,125
2019-05-04T14:00:24.273Z,125
2019-05-04T14:01:21.154Z,125
2019-05-04T14:02:19.706Z,120
2019-05-04T14:03:18.402Z,115
2019-05-04T14:04:17.066Z,115
2019-05-04T14:05:15.693Z,110
2019-05-04T14:06:14.409Z,110
2019-05-04T14:07:12.860Z,115
2019-05-04T14:09:57.169Z,125
2019-05-04T14:10:55.713Z,125
2019-05-04T14:11:55.554Z,125
2019-05-04T14:12:54.903Z,125
2019-05-04T14:15:41.465Z,120
2019-05-04T14:16:40.106Z,120
2019-05-04T14:17:38.802Z,120
2019-05-04T14:18:37.456Z,125
2019-05-04T14:19:36.015Z,125
2019-05-04T14:20:34.969Z,130
2019-05-04T14:21:35.327Z,130
2019-05-04T14:22:32.041Z,125
2019-05-04T14:23:30.831Z,120
2019-05-04T14:24:29.395Z,120
2019-05-04T14:25:27.931Z,115
2019-05-04T14:26:26.543Z,115
2019-05-04T14:27:25.202Z,115
2019-05-04T14:28:25.067Z,115
2019-05-04T14:29:24.299Z,120
2019-05-04T14:30:21.329Z,120
2019-05-04T14:31:19.911Z,115
2019-05-04T14:32:18.583Z,115
2019-05-04T14:33:17.285Z,110
2019-05-04T14:34:15.897Z,105
2019-05-04T14:35:14.456Z,105
2019-05-04T14:36:14.703Z,100
2019-05-04T14:37:11.569Z,100
2019-05-04T14:38:10.254Z,105
2019-05-04T14:39:08.935Z,105
2019-05-04T14:40:11.401Z,105
2019-05-04T14:41:06.163Z,105
2019-05-04T14:42:05.437Z,105
2019-05-04T14:43:05.302Z,105
2019-05-04T14:44:02.160Z,105
2019-05-04T14:45:01.959Z,100
2019-05-04T14:45:59.504Z,100
2019-05-04T14:46:57.848Z,100
2019-05-04T14:47:56.472Z,95
2019-05-04T14:48:55.178Z,95
2019-05-04T14:49:53.844Z,95
2019-05-04T14:50:52.399Z,95
2019-05-04T14:51:51.074Z,95
2019-05-04T14:52:49.607Z,95
2019-05-04T14:53:48.194Z,90
2019-05-04T14:54:46.827Z,90
2019-05-04T14:55:46.616Z,90
2019-05-04T14:56:45.078Z,90
2019-05-04T14:57:44.063Z,85
2019-05-04T14:58:41.459Z,80
2019-05-04T14:59:40.016Z,80
2019-05-04T15:00:39.276Z,75
2019-05-04T15:01:37.854Z,80
2019-05-04T15:02:36.578Z,85
2019-05-04T15:03:35.299Z,85
2019-05-04T15:04:35.242Z,90
2019-05-04T15:05:34.085Z,100
2019-05-04T15:06:31.077Z,100
2019-05-04T15:07:29.645Z,100
2019-05-04T15:08:28.272Z,100
2019-05-04T15:09:26.986Z,105
2019-05-04T15:10:25.585Z,105
2019-05-04T15:11:24.556Z,105
2019-05-04T15:12:22.714Z,110
2019-05-04T15:13:21.391Z,110
2019-05-04T15:14:19.991Z,110
2019-05-04T15:15:18.817Z,105
2019-05-04T15:16:17.422Z,100
2019-05-04T15:17:20.115Z,95
2019-05-04T15:18:18.795Z,90
2019-05-04T15:19:17.377Z,85
2019-05-04T15:20:15.906Z,85
2019-05-04T15:21:15.008Z,85
2019-05-04T15:22:15.270Z,85
2019-05-04T15:23:11.680Z,85
2019-05-04T15:24:10.228Z,95
2019-05-04T15:25:08.762Z,95
2019-05-04T15:26:07.274Z,100
2019-05-04T15:27:05.817Z,100
2019-05-04T15:28:04.720Z,105
2019-05-04T15:29:04.556Z,110
2019-05-04T15:30:01.505Z,110
2019-05-04T15:31:00.063Z,110
2019-05-04T15:31:58.757Z,115
2019-05-04T15:32:57.396Z,115
2019-05-04T15:33:55.929Z,115
2019-05-04T15:34:55.477Z,115
2019-05-04T15:35:54.524Z,120
2019-05-04T15:36:51.906Z,125
2019-05-04T15:37:50.443Z,120
2019-05-04T15:38:48.994Z,120
2019-05-04T15:39:47.570Z,115
2019-05-04T15:40:46.245Z,115
2019-05-04T15:41:44.845Z,115
2019-05-04T15:42:45.236Z,110
2019-05-04T15:43:43.830Z,110
2019-05-04T15:44:40.558Z,105
2019-05-04T15:45:39.206Z,105
2019-05-04T15:46:37.771Z,105
2019-05-04T15:47:36.490Z,105
2019-05-04T15:48:35.132Z,105
2019-05-04T15:49:35.048Z,95
2019-05-04T15:50:32.174Z,95
2019-05-04T15:51:30.721Z,95
2019-05-04T15:52:29.278Z,90
2019-05-04T15:53:27.809Z,90
2019-05-04T15:54:26.489Z,85
2019-05-04T15:55:25.152Z,85
2019-05-04T15:56:24.696Z,85
2019-05-04T15:57:22.405Z,85
2019-05-04T15:58:21.206Z,85
2019-05-04T15:59:19.779Z,85
2019-05-04T16:00:18.361Z,90
2019-05-04T16:01:17.014Z,90
2019-05-04T16:02:15.597Z,90
2019-05-04T16:03:14.846Z,95
2019-05-04T16:04:14.847Z,95
2019-05-04T16:05:11.414Z,100
2019-05-04T16:06:09.971Z,100
2019-05-04T16:07:08.689Z,100
2019-05-04T16:08:07.516Z,100
2019-05-04T16:09:06.065Z,100
2019-05-04T16:10:04.675Z,100
2019-05-04T16:11:04.295Z,95
2019-05-04T16:12:03.855Z,95
2019-05-04T16:13:00.554Z,95
2019-05-04T16:13:59.278Z,90
2019-05-04T16:14:58.648Z,90
2019-05-04T16:15:57.181Z,90
2019-05-04T16:16:55.758Z,90
2019-05-04T16:17:54.413Z,85
2019-05-04T16:18:52.978Z,85
2019-05-04T16:19:51.534Z,85
2019-05-04T16:20:50.093Z,85
2019-05-04T16:21:48.643Z,85
2019-05-04T16:22:47.209Z,85
2019-05-04T16:23:45.804Z,85
2019-05-04T16:24:44.995Z,85
2019-05-04T16:25:44.308Z,85
2019-05-04T16:26:41.717Z,80
2019-05-04T16:27:40.315Z,80
2019-05-04T16:28:39.118Z,85
2019-05-04T16:29:37.656Z,85
2019-05-04T16:30:36.255Z,85
2019-05-04T16:31:34.824Z,85
2019-05-04T16:32:35.111Z,85
2019-05-04T16:33:32.047Z,85
2019-05-04T16:34:30.772Z,85
2019-05-04T16:35:29.369Z,85
2019-05-04T16:36:29.046Z,85
2019-05-04T16:37:26.524Z,85
2019-05-04T16:38:25.248Z,85
2019-05-04T16:39:24.264Z,85
2019-05-04T16:40:24.833Z,85
2019-05-04T16:41:21.376Z,85
2019-05-04T16:42:19.956Z,85
2019-05-04T16:43:18.560Z,85
2019-05-04T16:44:17.346Z,85
2019-05-04T16:45:15.947Z,80
2019-05-04T16:46:14.543Z,80
2019-05-04T16:47:14.984Z,80
2019-05-04T16:48:11.729Z,80
2019-05-04T16:49:10.374Z,80
2019-05-04T16:50:09.207Z,75
2019-05-04T16:51:07.746Z,70
2019-05-04T16:52:06.500Z,70
2019-05-04T16:53:05.103Z,65
2019-05-04T16:54:05.214Z,65
2019-05-04T16:55:02.178Z,60
2019-05-04T16:56:00.718Z,60
2019-05-04T16:56:59.381Z,60
2019-05-04T16:57:57.821Z,60
2019-05-04T16:58:56.405Z,55
2019-05-04T16:59:55.227Z,60
2019-05-04T17:00:54.514Z,60
2019-05-04T17:01:52.319Z,60
2019-05-04T17:02:51.244Z,55
2019-05-04T17:03:49.795Z,55
2019-05-04T17:04:51.552Z,55
2019-05-04T17:05:47.070Z,55
2019-05-04T17:06:45.607Z,50
2019-05-04T17:07:44.544Z,50
2019-05-04T17:08:44.490Z,45
2019-05-04T17:09:41.488Z,45
2019-05-04T17:10:40.102Z,45
2019-05-04T17:11:38.824Z,40
2019-05-04T17:12:37.410Z,35
2019-05-04T17:13:35.977Z,30
2019-05-04T17:14:35.557Z,30
2019-05-04T17:15:34.686Z,30
2019-05-04T17:16:31.611Z,30
2019-05-04T17:17:30.328Z,35
2019-05-04T17:18:29.176Z,40
2019-05-04T17:19:28.717Z,40
2019-05-04T17:20:26.591Z,40
2019-05-04T17:21:25.149Z,35
2019-05-04T17:22:23.697Z,35
2019-05-04T17:23:22.282Z,30
2019-05-04T17:24:20.967Z,30
2019-05-04T17:25:19.512Z,25
2019-05-04T17:26:18.096Z,25
2019-05-04T17:27:16.819Z,25
2019-05-04T17:28:15.462Z,25
2019-05-04T17:29:15.076Z,20
2019-05-04T17:30:14.576Z,15
2019-05-04T17:31:11.174Z,15
2019-05-04T17:32:09.745Z,10
2019-05-04T17:33:08.285Z,10
2019-05-04T17:34:06.927Z,10
2019-05-04T17:35:05.473Z,10
2019-05-04T17:36:04.523Z,10
2019-05-04T17:37:04.377Z,10
2019-05-04T17:38:01.280Z,15
2019-05-04T17:38:59.826Z,15
2019-05-04T17:39:58.447Z,15
2019-05-04T17:40:57.092Z,15
2019-05-04T17:41:55.693Z,20
2019-05-04T17:42:55.045Z,20
2019-05-04T17:43:54.253Z,20
2019-05-04T17:44:54.187Z,15
2019-05-04T17:45:50.895Z,15
2019-05-04T17:46:49.770Z,15
2019-05-04T17:47:48.348Z,10
2019-05-04T17:48:46.910Z,10
2019-05-04T17:49:45.527Z,10
2019-05-04T17:50:44.967Z,10
2019-05-04T17:51:44.316Z,10
2019-05-04T17:52:41.234Z,10
2019-05-04T17:53:39.858Z,10
2019-05-04T17:54:38.601Z,10
2019-05-04T17:55:37.383Z,15
2019-05-04T17:56:35.960Z,15
2019-05-04T17:57:34.505Z,15
2019-05-04T17:58:34.697Z,15
2019-05-04T18:02:23.704Z,15
2019-05-04T18:03:22.278Z,15
2019-05-04T18:04:20.797Z,15
2019-05-04T18:05:19.347Z,15
2019-05-04T18:06:17.980Z,15
2019-05-04T18:07:16.706Z,15
2019-05-04T18:09:57.025Z,15
2019-05-04T18:10:55.671Z,15
2019-05-04T18:11:55.404Z,15
2019-05-04T18:12:54.676Z,15
2019-05-04T18:13:51.439Z,15
2019-05-04T18:14:50.153Z,15
2019-05-04T18:15:48.855Z,15
2019-05-04T18:16:47.460Z,15
2019-05-04T18:38:29.662Z,5
2019-05-04T18:39:28.226Z,5
2019-05-04T18:40:26.922Z,5
2019-05-04T18:41:25.536Z,5
2019-05-04T18:44:05.795Z,5
2019-05-04T18:45:04.982Z,5
2019-05-04T18:46:05.308Z,5
2019-05-04T18:47:01.888Z,5
2019-05-04T18:48:00.513Z,5
2019-05-04T18:48:59.091Z,0
2019-05-04T18:49:57.664Z,0
2019-05-04T18:50:56.361Z,0
2019-05-04T18:51:55.211Z,0
2019-05-04T18:52:54.281Z,0
2019-05-04T18:55:33.957Z,0
2019-05-04T18:56:34.424Z,0
2019-05-04T18:57:31.104Z,0
2019-05-04T18:58:29.694Z,0
2019-05-04T18:59:28.291Z,0
2019-05-04T19:00:26.967Z,0
2019-05-04T19:01:25.573Z,0
2019-05-04T19:02:24.107Z,0
2019-05-04T19:03:24.901Z,0
2019-05-04T19:06:04.603Z,0
2019-05-04T19:07:01.660Z,0
2019-05-04T19:08:02.583Z,0
2019-05-04T19:08:59.167Z,0
2019-05-04T19:09:57.731Z,0
2019-05-04T19:10:56.277Z,0
2019-05-04T19:11:55.172Z,0
2019-05-04T19:12:54.290Z,0
2019-05-04T19:13:52.297Z,0
2019-05-04T19:14:51.044Z,0
2019-05-04T19:15:49.624Z,0
2019-05-04T19:16:48.164Z,0
2019-05-04T19:25:56.587Z,0
2019-05-04T19:26:55.284Z,0
2019-05-04T19:27:53.839Z,0
2019-05-04T19:28:52.408Z,0
2019-05-04T19:29:50.987Z,0
2019-05-04T19:30:49.530Z,0
2019-05-04T19:31:48.088Z,0
2019-05-04T19:32:46.755Z,0
2019-05-04T19:33:46.103Z,0
2019-05-04T19:34:45.968Z,0
2019-05-04T19:35:44.785Z,0
2019-05-04T19:39:21.771Z,0
2019-05-04T19:40:20.348Z,0
2019-05-04T19:41:19.026Z,0
2019-05-04T19:42:17.629Z,0
2019-05-04T19:43:16.143Z,0
2019-05-04T19:44:15.091Z,0
2019-05-04T19:45:14.253Z,0
2019-05-04T19:46:12.381Z,0
2019-05-04T19:47:20.572Z,0
2019-05-04T19:48:09.877Z,0
2019-05-04T19:49:08.641Z,0
2019-05-04T19:50:07.297Z,0
2019-05-04T19:51:05.907Z,0
2019-05-04T19:52:05.076Z,0
2019-05-04T19:53:04.638Z,0
2019-05-04T19:54:01.895Z,0
2019-05-04T19:55:00.497Z,0
2019-05-04T19:55:59.287Z,0
2019-05-04T19:56:57.863Z,0
2019-05-04T19:57:56.578Z,0
2019-05-04T19:58:55.253Z,0
2019-05-04T19:59:54.969Z,0
2019-05-04T20:00:52.441Z,0
2019-05-04T20:01:51.193Z,0
2019-05-04T20:02:49.791Z,0
2019-05-04T20:03:48.357Z,0
2019-05-04T20:04:47.143Z,0
2019-05-04T20:05:45.712Z,0
2019-05-04T20:08:29.887Z,0
2019-05-04T20:13:19.670Z,0
2019-05-04T20:14:18.289Z,0
2019-05-04T20:15:22.326Z,0
2019-05-04T20:16:16.285Z,0
2019-05-04T20:17:15.903Z,0
2019-05-04T20:18:12.720Z,0
2019-05-04T20:19:11.486Z,0
2019-05-04T20:20:10.048Z,0
2019-05-04T20:21:08.773Z,0
2019-05-04T20:22:07.546Z,0
2019-05-04T20:23:06.096Z,0
2019-05-04T20:24:05.041Z,0
2019-05-04T20:25:05.073Z,0
2019-05-04T20:26:01.848Z,0
2019-05-04T20:27:00.438Z,0
2019-05-04T20:27:59.145Z,0
2019-05-04T20:28:57.695Z,0
2019-05-04T20:29:56.230Z,0
2019-05-04T20:30:55.263Z,0
2019-05-04T20:31:54.849Z,0
2019-05-04T20:32:52.176Z,0
2019-05-04T20:33:50.816Z,0
2019-05-04T20:34:49.440Z,0
2019-05-04T20:35:48.060Z,0
2019-05-04T20:36:46.645Z,0
2019-05-04T20:37:45.360Z,0
2019-05-04T20:38:44.655Z,0
2019-05-04T20:39:42.791Z,0
2019-05-04T20:40:41.656Z,0
2019-05-04T20:41:40.011Z,0
2019-05-04T20:42:38.622Z,0
2019-05-04T20:43:37.320Z,0
2019-05-04T20:44:35.889Z,0
2019-05-04T20:45:34.747Z,0
2019-05-04T20:46:34.242Z,0
2019-05-04T20:47:31.921Z,0
2019-05-04T20:48:30.524Z,0
2019-05-04T20:49:29.162Z,0
2019-05-04T20:50:27.748Z,0
2019-05-04T20:51:26.309Z,0
2019-05-04T20:52:25.042Z,0
2019-05-04T20:53:24.526Z,0
2019-05-04T20:54:22.259Z,0
2019-05-04T20:55:20.978Z,0
2019-05-04T20:56:19.513Z,0
2019-05-04T20:57:18.079Z,0
2019-05-04T20:58:16.685Z,0
2019-05-04T20:59:15.232Z,0
2019-05-04T21:00:15.084Z,0
2019-05-04T21:01:12.492Z,0
2019-05-04T21:02:11.254Z,0
2019-05-04T21:03:09.816Z,0
2019-05-04T21:04:08.401Z,0
2019-05-04T21:05:07.126Z,0
2019-05-04T21:06:05.654Z,0
2019-05-04T21:07:05.064Z,0
2019-05-04T21:08:04.692Z,0
2019-05-04T21:09:01.380Z,0
2019-05-04T21:09:59.903Z,0
2019-05-04T21:10:58.577Z,0
2019-05-04T21:11:57.323Z,0
2019-05-04T21:12:55.876Z,0
2019-05-04T21:13:55.225Z,0
2019-05-04T21:14:55.165Z,0
2019-05-04T21:15:51.872Z,0
2019-05-04T21:16:50.463Z,0
2019-05-04T21:18:00.795Z,0
2019-05-04T21:18:47.578Z,0
2019-05-04T21:19:46.125Z,0
2019-05-04T21:20:44.854Z,0
2019-05-04T21:21:43.483Z,0
2019-05-04T21:22:42.066Z,0
2019-05-04T21:23:40.709Z,0
2019-05-04T21:24:39.473Z,0
2019-05-04T21:25:38.036Z,0
2019-05-04T21:26:36.619Z,0
2019-05-04T21:27:35.188Z,0
2019-05-04T21:28:33.761Z,0
2019-05-04T21:29:32.414Z,0
2019-05-04T21:30:31.187Z,0
2019-05-04T21:31:29.761Z,0
2019-05-04T21:32:28.346Z,0
2019-05-04T21:33:27.160Z,0
2019-05-04T21:34:25.702Z,0
2019-05-04T21:35:24.253Z,0
2019-05-04T21:36:22.978Z,0
2019-05-04T21:37:21.601Z,0
2019-05-04T21:38:20.125Z,0
2019-05-04T21:39:18.715Z,0
2019-05-04T21:40:17.320Z,0
2019-05-04T21:41:15.939Z,0
2019-05-04T21:42:14.460Z,0
2019-05-04T21:43:14.378Z,0
2019-05-04T21:44:11.872Z,0
2019-05-04T21:45:10.465Z,0
2019-05-04T21:46:09.163Z,0
2019-05-04T21:47:07.731Z,0
2019-05-04T21:48:16.779Z,0
2019-05-04T21:49:05.468Z,0
2019-05-04T21:52:44.361Z,0
2019-05-04T21:53:44.622Z,0
2019-05-04T21:54:40.960Z,0
2019-05-04T21:55:39.496Z,0
2019-05-04T21:56:38.031Z,0
2019-05-04T21:57:36.685Z,0
2019-05-04T21:58:35.373Z,0
2019-05-04T21:59:35.367Z,0
2019-05-04T22:00:34.547Z,0
2019-05-04T22:01:31.443Z,0
2019-05-04T22:02:30.012Z,0
2019-05-04T22:03:28.632Z,0
2019-05-04T22:04:27.278Z,0
2019-05-04T22:05:25.808Z,0
2019-05-04T22:06:24.961Z,0
2019-05-04T22:07:24.789Z,0
2019-05-04T22:08:21.680Z,0
2019-05-04T22:10:44.813Z,0
2019-05-04T22:11:45.010Z,0
2019-05-04T22:12:41.544Z,0
2019-05-04T22:13:40.087Z,0
2019-05-04T22:14:38.640Z,0
2019-05-04T22:15:37.213Z,0
2019-05-04T22:16:35.769Z,0
2019-05-04T22:17:35.387Z,0
2019-05-04T22:18:34.754Z,0
2019-05-04T22:19:31.719Z,0
2019-05-04T22:20:30.266Z,0
2019-05-04T22:21:29.055Z,0
2019-05-04T22:22:27.651Z,0
2019-05-04T22:23:26.197Z,0
2019-05-04T22:24:25.478Z,0
2019-05-04T22:25:24.453Z,0
2019-05-04T22:26:21.849Z,0
2019-05-04T22:27:20.431Z,0
2019-05-04T22:28:19.019Z,0
2019-05-04T22:29:17.561Z,0
2019-05-04T22:30:16.103Z,0
2019-05-04T22:31:15.215Z,0
2019-05-04T22:32:14.633Z,0
2019-05-04T22:33:12.079Z,0
2019-05-04T22:34:10.793Z,0
2019-05-04T22:35:09.364Z,0
2019-05-04T22:36:07.874Z,0
2019-05-04T22:37:06.440Z,0
2019-05-04T22:38:04.962Z,0
2019-05-04T22:39:05.857Z,0
2019-05-04T22:40:02.106Z,0
2019-05-04T22:41:00.626Z,0
2019-05-04T22:41:59.191Z,0
2019-05-04T22:42:57.767Z,0
2019-05-04T22:43:56.351Z,0
2019-05-04T22:44:54.980Z,0
2019-05-04T22:45:54.667Z,0
2019-05-04T22:46:52.155Z,0
2019-05-04T22:47:50.749Z,0
2019-05-04T22:48:49.672Z,0
2019-05-04T22:49:47.999Z,0
2019-05-04T22:50:46.614Z,0
2019-05-04T22:51:45.204Z,0
2019-05-04T22:52:44.439Z,0
2019-05-04T22:53:42.283Z,0
2019-05-04T22:54:40.836Z,0
2019-05-04T22:55:39.384Z,0
2019-05-04T22:56:37.957Z,0
2019-05-04T22:57:36.566Z,0
2019-05-04T22:58:35.358Z,0
2019-05-04T22:59:35.135Z,0
2019-05-04T23:00:34.469Z,0
2019-05-04T23:01:31.199Z,0
2019-05-04T23:02:29.754Z,0
2019-05-04T23:03:28.330Z,0
2019-05-04T23:04:26.906Z,0
2019-05-04T23:05:25.447Z,0
2019-05-04T23:06:24.336Z,0
2019-05-04T23:07:22.762Z,0
2019-05-04T23:08:21.337Z,0
2019-05-04T23:09:19.869Z,0
2019-05-04T23:10:18.461Z,0
2019-05-04T23:11:17.159Z,0
2019-05-04T23:12:15.679Z,0
2019-05-04T23:13:14.662Z,0
2019-05-04T23:14:14.599Z,0
2019-05-04T23:15:11.396Z,0
2019-05-04T23:16:09.951Z,0
2019-05-04T23:17:08.488Z,0
2019-05-04T23:18:07.211Z,0
2019-05-04T23:19:06.021Z,0
2019-05-04T23:20:04.997Z,0
2019-05-04T23:21:04.463Z,0
2019-05-04T23:22:01.381Z,0
2019-05-04T23:22:59.933Z,0
2019-05-04T23:23:58.561Z,0
2019-05-04T23:24:57.290Z,0
2019-05-04T23:25:55.837Z,0
2019-05-04T23:26:54.597Z,0
2019-05-04T23:27:55.013Z,0
2019-05-04T23:28:51.807Z,0
2019-05-04T23:29:50.355Z,0
2019-05-04T23:30:48.893Z,0
2019-05-04T23:31:47.447Z,0
2019-05-04T23:32:45.976Z,0
2019-05-04T23:33:44.965Z,0
2019-05-04T23:34:45.222Z,0
2019-05-04T23:35:41.772Z,0
2019-05-04T23:36:40.348Z,0
2019-05-04T23:37:39.112Z,0
2019-05-04T23:38:37.710Z,0
2019-05-04T23:39:36.246Z,0
2019-05-04T23:40:34.949Z,0
2019-05-04T23:41:35.276Z,0
2019-05-04T23:42:32.193Z,0
2019-05-04T23:43:30.770Z,0
2019-05-04T23:44:29.331Z,0
2019-05-04T23:45:27.844Z,0
2019-05-04T23:46:26.437Z,0
2019-05-04T23:47:25.126Z,0
2019-05-04T23:48:25.353Z,0
2019-05-04T23:49:22.261Z,0
2019-05-04T23:50:20.838Z,0
2019-05-04T23:51:19.473Z,0
2019-05-04T23:52:18.023Z,0
2019-05-04T23:53:16.675Z,0
2019-05-04T23:54:15.271Z,0
2019-05-04T23:55:15.021Z,0
2019-05-04T23:56:14.438Z,0
2019-05-04T23:57:10.906Z,0
2019-05-04T23:58:09.521Z,0
2019-05-04T23:59:08.106Z,0
